sensor_id;sensor_type;location;lat;lon;timestamp;P1;durP1;ratioP1;P2;durP2;ratioP2
8450;SDS011;4262;50.980;13.892;2023-01-30T04:30:42;15.10;;;10.30;;
8450;SDS011;4262;50.980;13.892;2023-01-30T04:33:28;13.97;;;8.63;;
8450;SDS011;4262;50.980;13.892;2023-01-30T04:35:55;13.40;;;8.97;;
8450;SDS011;4262;50.980;13.892;2023-01-30T04:38:24;16.50;;;9.37;;
8450;SDS011;4262;50.980;13.892;2023-01-30T04:40:52;15.70;;;10.60;;
8450;SDS011;4262;50.980;13.892;2023-01-30T04:43:21;13.77;;;8.63;;
8450;SDS011;4262;50.980;13.892;2023-01-30T04:46:09;14.50;;;9.40;;
8450;SDS011;4262;50.980;13.892;2023-01-30T04:48:36;12.97;;;8.83;;
8450;SDS011;4262;50.980;13.892;2023-01-30T04:51:03;16.47;;;9.40;;
8450;SDS011;4262;50.980;13.892;2023-01-30T04:53:30;13.87;;;8.00;;
8450;SDS011;4262;50.980;13.892;2023-01-30T04:55:57;13.10;;;8.70;;
8450;SDS011;4262;50.980;13.892;2023-01-30T04:58:25;12.17;;;8.30;;
8450;SDS011;4262;50.980;13.892;2023-01-30T05:00:51;16.20;;;9.37;;
8450;SDS011;4262;50.980;13.892;2023-01-30T05:03:19;20.03;;;10.00;;
8450;SDS011;4262;50.980;13.892;2023-01-30T05:05:46;13.73;;;9.07;;
8450;SDS011;4262;50.980;13.892;2023-01-30T05:08:13;16.53;;;9.57;;
8450;SDS011;4262;50.980;13.892;2023-01-30T05:10:40;13.73;;;9.70;;
8450;SDS011;4262;50.980;13.892;2023-01-30T05:13:06;17.33;;;9.17;;
8450;SDS011;4262;50.980;13.892;2023-01-30T05:15:33;14.77;;;9.27;;
8450;SDS011;4262;50.980;13.892;2023-01-30T05:18:00;13.73;;;8.43;;
8450;SDS011;4262;50.980;13.892;2023-01-30T05:20:28;14.97;;;9.10;;
8450;SDS011;4262;50.980;13.892;2023-01-30T05:22:55;13.23;;;9.30;;
8450;SDS011;4262;50.980;13.892;2023-01-30T05:25:22;14.10;;;8.60;;
8450;SDS011;4262;50.980;13.892;2023-01-30T05:27:48;13.27;;;8.37;;
8450;SDS011;4262;50.980;13.892;2023-01-30T05:30:16;15.83;;;8.70;;
8450;SDS011;4262;50.980;13.892;2023-01-30T05:32:43;14.70;;;9.67;;
8450;SDS011;4262;50.980;13.892;2023-01-30T05:35:10;17.33;;;8.90;;
8450;SDS011;4262;50.980;13.892;2023-01-30T05:37:38;13.90;;;8.20;;
8450;SDS011;4262;50.980;13.892;2023-01-30T05:40:05;13.50;;;8.63;;
8450;SDS011;4262;50.980;13.892;2023-01-30T05:42:33;15.73;;;8.67;;
8450;SDS011;4262;50.980;13.892;2023-01-30T05:45:00;14.50;;;9.40;;
8450;SDS011;4262;50.980;13.892;2023-01-30T05:47:28;13.00;;;8.70;;
8450;SDS011;4262;50.980;13.892;2023-01-30T05:49:54;14.13;;;8.80;;
8450;SDS011;4262;50.980;13.892;2023-01-30T05:52:22;13.50;;;8.77;;
8450;SDS011;4262;50.980;13.892;2023-01-30T05:54:50;14.17;;;8.57;;
8450;SDS011;4262;50.980;13.892;2023-01-30T05:57:17;13.80;;;8.83;;
8450;SDS011;4262;50.980;13.892;2023-01-30T05:59:44;13.13;;;8.30;;
8450;SDS011;4262;50.980;13.892;2023-01-30T06:02:12;16.70;;;9.60;;
8450;SDS011;4262;50.980;13.892;2023-01-30T06:04:39;13.80;;;9.23;;
8450;SDS011;4262;50.980;13.892;2023-01-30T06:07:06;12.17;;;8.00;;
8450;SDS011;4262;50.980;13.892;2023-01-30T06:09:33;14.30;;;9.00;;
8450;SDS011;4262;50.980;13.892;2023-01-30T06:12:01;14.03;;;9.10;;
8450;SDS011;4262;50.980;13.892;2023-01-30T06:14:28;12.83;;;8.03;;
8450;SDS011;4262;50.980;13.892;2023-01-30T06:16:56;15.57;;;9.83;;
8450;SDS011;4262;50.980;13.892;2023-01-30T06:19:23;14.07;;;8.47;;
8450;SDS011;4262;50.980;13.892;2023-01-30T06:21:49;12.60;;;7.90;;
8450;SDS011;4262;50.980;13.892;2023-01-30T06:24:18;14.83;;;9.73;;
8450;SDS011;4262;50.980;13.892;2023-01-30T06:26:44;14.03;;;8.47;;
8450;SDS011;4262;50.980;13.892;2023-01-30T06:29:12;13.13;;;8.87;;
8450;SDS011;4262;50.980;13.892;2023-01-30T06:31:39;12.60;;;8.20;;
8450;SDS011;4262;50.980;13.892;2023-01-30T06:34:06;14.83;;;8.70;;
8450;SDS011;4262;50.980;13.892;2023-01-30T06:36:32;14.50;;;8.67;;
8450;SDS011;4262;50.980;13.892;2023-01-30T06:38:59;12.50;;;8.47;;
8450;SDS011;4262;50.980;13.892;2023-01-30T06:41:26;14.13;;;9.03;;
8450;SDS011;4262;50.980;13.892;2023-01-30T06:43:52;15.43;;;9.17;;
8450;SDS011;4262;50.980;13.892;2023-01-30T06:46:21;14.80;;;7.60;;
8450;SDS011;4262;50.980;13.892;2023-01-30T06:48:49;12.83;;;7.63;;
8450;SDS011;4262;50.980;13.892;2023-01-30T06:51:16;12.83;;;8.47;;
8450;SDS011;4262;50.980;13.892;2023-01-30T06:53:44;14.80;;;8.83;;
8450;SDS011;4262;50.980;13.892;2023-01-30T06:56:11;14.07;;;8.63;;
8450;SDS011;4262;50.980;13.892;2023-01-30T06:58:38;18.57;;;8.93;;
8450;SDS011;4262;50.980;13.892;2023-01-30T07:01:05;13.17;;;8.73;;
8450;SDS011;4262;50.980;13.892;2023-01-30T07:03:33;12.43;;;9.13;;
8450;SDS011;4262;50.980;13.892;2023-01-30T07:06:00;12.37;;;8.27;;
8450;SDS011;4262;50.980;13.892;2023-01-30T07:08:27;14.90;;;10.47;;
8450;SDS011;4262;50.980;13.892;2023-01-30T07:10:54;12.90;;;8.60;;
8450;SDS011;4262;50.980;13.892;2023-01-30T07:13:20;15.57;;;8.37;;
8450;SDS011;4262;50.980;13.892;2023-01-30T07:15:47;13.73;;;8.90;;
8450;SDS011;4262;50.980;13.892;2023-01-30T07:18:16;12.90;;;8.93;;
8450;SDS011;4262;50.980;13.892;2023-01-30T07:20:46;15.20;;;9.30;;
8450;SDS011;4262;50.980;13.892;2023-01-30T07:23:15;13.50;;;9.07;;
8450;SDS011;4262;50.980;13.892;2023-01-30T07:25:42;16.73;;;9.40;;
8450;SDS011;4262;50.980;13.892;2023-01-30T07:28:09;13.33;;;8.73;;
8450;SDS011;4262;50.980;13.892;2023-01-30T07:30:36;14.03;;;9.00;;
8450;SDS011;4262;50.980;13.892;2023-01-30T07:33:04;14.40;;;9.00;;
8450;SDS011;4262;50.980;13.892;2023-01-30T07:35:32;14.77;;;7.53;;
8450;SDS011;4262;50.980;13.892;2023-01-30T07:38:02;12.47;;;7.57;;
8450;SDS011;4262;50.980;13.892;2023-01-30T07:40:29;12.47;;;8.10;;
8450;SDS011;4262;50.980;13.892;2023-01-30T07:42:58;12.23;;;7.70;;
8450;SDS011;4262;50.980;13.892;2023-01-30T07:45:27;15.67;;;7.70;;
8450;SDS011;4262;50.980;13.892;2023-01-30T07:47:58;12.47;;;8.43;;
8450;SDS011;4262;50.980;13.892;2023-01-30T07:50:24;11.73;;;8.10;;
8450;SDS011;4262;50.980;13.892;2023-01-30T07:52:53;11.20;;;8.33;;
8450;SDS011;4262;50.980;13.892;2023-01-30T07:55:21;13.00;;;8.17;;
8450;SDS011;4262;50.980;13.892;2023-01-30T07:57:48;10.80;;;6.93;;
8450;SDS011;4262;50.980;13.892;2023-01-30T08:00:15;11.47;;;6.73;;
8450;SDS011;4262;50.980;13.892;2023-01-30T08:02:41;15.60;;;6.60;;
8450;SDS011;4262;50.980;13.892;2023-01-30T08:05:08;9.73;;;6.97;;
8450;SDS011;4262;50.980;13.892;2023-01-30T08:07:35;13.03;;;7.33;;
8450;SDS011;4262;50.980;13.892;2023-01-30T08:10:02;10.70;;;6.63;;
8450;SDS011;4262;50.980;13.892;2023-01-30T08:12:30;10.90;;;7.07;;
8450;SDS011;4262;50.980;13.892;2023-01-30T08:14:58;12.43;;;7.20;;
8450;SDS011;4262;50.980;13.892;2023-01-30T08:17:27;11.00;;;6.80;;
8450;SDS011;4262;50.980;13.892;2023-01-30T08:19:53;13.77;;;6.90;;
8450;SDS011;4262;50.980;13.892;2023-01-30T08:22:20;10.10;;;6.90;;
8450;SDS011;4262;50.980;13.892;2023-01-30T08:24:48;10.07;;;6.40;;
8450;SDS011;4262;50.980;13.892;2023-01-30T08:27:15;10.60;;;7.10;;
8450;SDS011;4262;50.980;13.892;2023-01-30T08:29:44;10.03;;;6.90;;
8450;SDS011;4262;50.980;13.892;2023-01-30T08:32:12;10.53;;;6.70;;
8450;SDS011;4262;50.980;13.892;2023-01-30T08:34:39;12.10;;;6.83;;
8450;SDS011;4262;50.980;13.892;2023-01-30T08:37:06;10.90;;;6.43;;
8450;SDS011;4262;50.980;13.892;2023-01-30T08:39:32;14.23;;;6.73;;
8450;SDS011;4262;50.980;13.892;2023-01-30T08:41:59;12.33;;;7.27;;
8450;SDS011;4262;50.980;13.892;2023-01-30T08:44:27;10.87;;;6.60;;
8450;SDS011;4262;50.980;13.892;2023-01-30T08:46:57;8.67;;;5.00;;
8450;SDS011;4262;50.980;13.892;2023-01-30T08:49:24;10.20;;;5.27;;
8450;SDS011;4262;50.980;13.892;2023-01-30T08:51:50;10.00;;;6.43;;
8450;SDS011;4262;50.980;13.892;2023-01-30T08:54:19;10.93;;;5.20;;
8450;SDS011;4262;50.980;13.892;2023-01-30T08:56:46;8.53;;;5.50;;
8450;SDS011;4262;50.980;13.892;2023-01-30T08:59:13;9.60;;;6.10;;
8450;SDS011;4262;50.980;13.892;2023-01-30T09:01:39;9.63;;;5.43;;
8450;SDS011;4262;50.980;13.892;2023-01-30T09:04:07;7.60;;;4.97;;
8450;SDS011;4262;50.980;13.892;2023-01-30T09:06:34;8.37;;;5.13;;
8450;SDS011;4262;50.980;13.892;2023-01-30T09:09:01;7.33;;;4.63;;
8450;SDS011;4262;50.980;13.892;2023-01-30T09:11:27;9.87;;;5.27;;
8450;SDS011;4262;50.980;13.892;2023-01-30T09:13:56;7.37;;;4.80;;
8450;SDS011;4262;50.980;13.892;2023-01-30T09:16:22;7.50;;;4.30;;
8450;SDS011;4262;50.980;13.892;2023-01-30T09:18:51;8.20;;;5.67;;
8450;SDS011;4262;50.980;13.892;2023-01-30T09:21:19;7.43;;;5.27;;
8450;SDS011;4262;50.980;13.892;2023-01-30T09:23:47;8.23;;;4.77;;
8450;SDS011;4262;50.980;13.892;2023-01-30T09:26:14;9.63;;;5.27;;
8450;SDS011;4262;50.980;13.892;2023-01-30T09:28:41;8.53;;;4.37;;
8450;SDS011;4262;50.980;13.892;2023-01-30T09:31:08;7.00;;;4.27;;
8450;SDS011;4262;50.980;13.892;2023-01-30T09:33:36;6.87;;;4.23;;
8450;SDS011;4262;50.980;13.892;2023-01-30T09:36:03;7.43;;;5.03;;
8450;SDS011;4262;50.980;13.892;2023-01-30T09:38:32;7.40;;;4.70;;
8450;SDS011;4262;50.980;13.892;2023-01-30T09:41:03;7.67;;;5.20;;
8450;SDS011;4262;50.980;13.892;2023-01-30T09:43:46;8.17;;;3.90;;
8450;SDS011;4262;50.980;13.892;2023-01-30T09:46:27;7.63;;;4.30;;
8450;SDS011;4262;50.980;13.892;2023-01-30T09:49:03;9.73;;;5.70;;
8450;SDS011;4262;50.980;13.892;2023-01-30T09:51:43;7.57;;;4.50;;
8450;SDS011;4262;50.980;13.892;2023-01-30T09:54:22;10.30;;;5.10;;
8450;SDS011;4262;50.980;13.892;2023-01-30T09:57:00;6.63;;;4.63;;
8450;SDS011;4262;50.980;13.892;2023-01-30T09:59:40;8.03;;;4.77;;
8450;SDS011;4262;50.980;13.892;2023-01-30T10:02:20;8.40;;;5.30;;
8450;SDS011;4262;50.980;13.892;2023-01-30T10:04:54;7.80;;;5.37;;
8450;SDS011;4262;50.980;13.892;2023-01-30T10:07:24;8.60;;;4.90;;
8450;SDS011;4262;50.980;13.892;2023-01-30T10:10:02;7.43;;;4.20;;
8450;SDS011;4262;50.980;13.892;2023-01-30T10:12:38;7.70;;;4.60;;
8450;SDS011;4262;50.980;13.892;2023-01-30T10:15:16;6.60;;;3.63;;
8450;SDS011;4262;50.980;13.892;2023-01-30T10:17:56;7.03;;;4.60;;
8450;SDS011;4262;50.980;13.892;2023-01-30T10:20:35;7.47;;;3.63;;
8450;SDS011;4262;50.980;13.892;2023-01-30T10:23:15;6.60;;;4.23;;
8450;SDS011;4262;50.980;13.892;2023-01-30T10:26:06;6.40;;;3.80;;
8450;SDS011;4262;50.980;13.892;2023-01-30T10:28:37;8.23;;;4.50;;
8450;SDS011;4262;50.980;13.892;2023-01-30T10:31:09;6.90;;;3.90;;
8450;SDS011;4262;50.980;13.892;2023-01-30T10:33:41;8.13;;;4.10;;
8450;SDS011;4262;50.980;13.892;2023-01-30T10:36:11;9.53;;;3.93;;
8450;SDS011;4262;50.980;13.892;2023-01-30T10:38:43;8.23;;;4.17;;
8450;SDS011;4262;50.980;13.892;2023-01-30T10:41:18;7.20;;;4.20;;
8450;SDS011;4262;50.980;13.892;2023-01-30T10:43:53;6.30;;;3.37;;
8450;SDS011;4262;50.980;13.892;2023-01-30T10:46:29;6.40;;;3.40;;
8450;SDS011;4262;50.980;13.892;2023-01-30T10:49:10;7.43;;;3.90;;
8450;SDS011;4262;50.980;13.892;2023-01-30T10:51:43;6.27;;;3.70;;
8450;SDS011;4262;50.980;13.892;2023-01-30T10:54:20;7.27;;;3.33;;
8450;SDS011;4262;50.980;13.892;2023-01-30T10:56:53;8.23;;;4.30;;
8450;SDS011;4262;50.980;13.892;2023-01-30T10:59:27;8.13;;;3.90;;
8450;SDS011;4262;50.980;13.892;2023-01-30T11:02:10;7.40;;;3.90;;
8450;SDS011;4262;50.980;13.892;2023-01-30T11:04:54;6.20;;;3.67;;
8450;SDS011;4262;50.980;13.892;2023-01-30T11:07:24;6.40;;;3.60;;
8450;SDS011;4262;50.980;13.892;2023-01-30T11:09:51;6.63;;;3.27;;
8450;SDS011;4262;50.980;13.892;2023-01-30T11:12:19;5.43;;;3.03;;
8450;SDS011;4262;50.980;13.892;2023-01-30T11:14:55;5.00;;;3.13;;
8450;SDS011;4262;50.980;13.892;2023-01-30T11:17:29;5.20;;;2.50;;
8450;SDS011;4262;50.980;13.892;2023-01-30T11:20:00;5.70;;;3.10;;
8450;SDS011;4262;50.980;13.892;2023-01-30T11:22:31;5.77;;;3.40;;
8450;SDS011;4262;50.980;13.892;2023-01-30T11:25:03;6.60;;;2.97;;
8450;SDS011;4262;50.980;13.892;2023-01-30T11:27:40;5.50;;;2.67;;
8450;SDS011;4262;50.980;13.892;2023-01-30T11:30:12;5.53;;;3.10;;
8450;SDS011;4262;50.980;13.892;2023-01-30T11:32:42;5.90;;;3.43;;
8450;SDS011;4262;50.980;13.892;2023-01-30T11:35:17;5.70;;;3.70;;
8450;SDS011;4262;50.980;13.892;2023-01-30T11:37:48;5.50;;;3.53;;
8450;SDS011;4262;50.980;13.892;2023-01-30T11:40:22;6.43;;;4.17;;
8450;SDS011;4262;50.980;13.892;2023-01-30T11:42:57;6.47;;;3.87;;
8450;SDS011;4262;50.980;13.892;2023-01-30T11:45:32;5.40;;;2.90;;
8450;SDS011;4262;50.980;13.892;2023-01-30T11:48:03;6.57;;;3.60;;
8450;SDS011;4262;50.980;13.892;2023-01-30T11:50:38;7.40;;;3.90;;
8450;SDS011;4262;50.980;13.892;2023-01-30T11:53:13;6.17;;;3.63;;
8450;SDS011;4262;50.980;13.892;2023-01-30T11:55:52;5.60;;;3.60;;
8450;SDS011;4262;50.980;13.892;2023-01-30T11:58:22;8.00;;;3.63;;
8450;SDS011;4262;50.980;13.892;2023-01-30T12:00:50;6.70;;;4.17;;
8450;SDS011;4262;50.980;13.892;2023-01-30T12:03:17;5.87;;;3.87;;
8450;SDS011;4262;50.980;13.892;2023-01-30T12:05:49;6.97;;;3.57;;
8450;SDS011;4262;50.980;13.892;2023-01-30T12:08:21;5.40;;;3.67;;
8450;SDS011;4262;50.980;13.892;2023-01-30T12:10:52;5.53;;;3.20;;
8450;SDS011;4262;50.980;13.892;2023-01-30T12:13:24;7.80;;;3.63;;
8450;SDS011;4262;50.980;13.892;2023-01-30T12:16:04;6.10;;;3.53;;
8450;SDS011;4262;50.980;13.892;2023-01-30T12:18:43;5.90;;;4.10;;
8450;SDS011;4262;50.980;13.892;2023-01-30T12:21:25;6.27;;;3.57;;
8450;SDS011;4262;50.980;13.892;2023-01-30T12:24:04;7.23;;;3.80;;
8450;SDS011;4262;50.980;13.892;2023-01-30T12:26:43;6.10;;;4.10;;
8450;SDS011;4262;50.980;13.892;2023-01-30T12:29:18;7.97;;;3.53;;
8450;SDS011;4262;50.980;13.892;2023-01-30T12:31:53;6.90;;;3.60;;
8450;SDS011;4262;50.980;13.892;2023-01-30T12:34:29;7.70;;;3.87;;
8450;SDS011;4262;50.980;13.892;2023-01-30T12:36:59;8.30;;;3.57;;
8450;SDS011;4262;50.980;13.892;2023-01-30T12:39:37;7.13;;;3.00;;
8450;SDS011;4262;50.980;13.892;2023-01-30T12:42:21;6.30;;;3.60;;
8450;SDS011;4262;50.980;13.892;2023-01-30T12:45:10;7.10;;;4.03;;
8450;SDS011;4262;50.980;13.892;2023-01-30T12:47:59;7.37;;;4.30;;
8450;SDS011;4262;50.980;13.892;2023-01-30T12:50:51;6.70;;;2.80;;
8450;SDS011;4262;50.980;13.892;2023-01-30T12:53:30;6.80;;;3.40;;
8450;SDS011;4262;50.980;13.892;2023-01-30T12:56:09;20.40;;;12.23;;
8450;SDS011;4262;50.980;13.892;2023-01-30T12:58:58;9.20;;;3.70;;
8450;SDS011;4262;50.980;13.892;2023-01-30T13:04:28;8.50;;;3.83;;
8450;SDS011;4262;50.980;13.892;2023-01-30T13:07:07;7.93;;;3.80;;
8450;SDS011;4262;50.980;13.892;2023-01-30T13:10:01;7.60;;;3.33;;
8450;SDS011;4262;50.980;13.892;2023-01-30T13:12:36;12.00;;;4.03;;
8450;SDS011;4262;50.980;13.892;2023-01-30T13:15:15;8.00;;;3.80;;
8450;SDS011;4262;50.980;13.892;2023-01-30T13:17:58;7.23;;;3.60;;
8450;SDS011;4262;50.980;13.892;2023-01-30T13:20:43;7.03;;;3.70;;
8450;SDS011;4262;50.980;13.892;2023-01-30T13:23:17;6.00;;;3.60;;
8450;SDS011;4262;50.980;13.892;2023-01-30T13:25:51;8.87;;;3.87;;
8450;SDS011;4262;50.980;13.892;2023-01-30T13:28:24;12.67;;;4.67;;
8450;SDS011;4262;50.980;13.892;2023-01-30T13:30:53;9.23;;;3.83;;
8450;SDS011;4262;50.980;13.892;2023-01-30T13:33:24;10.07;;;3.90;;
8450;SDS011;4262;50.980;13.892;2023-01-30T13:35:55;11.80;;;3.93;;
8450;SDS011;4262;50.980;13.892;2023-01-30T13:38:27;8.00;;;3.40;;
8450;SDS011;4262;50.980;13.892;2023-01-30T13:40:57;8.30;;;4.03;;
8450;SDS011;4262;50.980;13.892;2023-01-30T13:43:27;9.50;;;3.30;;
8450;SDS011;4262;50.980;13.892;2023-01-30T13:45:58;12.17;;;4.10;;
8450;SDS011;4262;50.980;13.892;2023-01-30T13:48:38;12.37;;;3.50;;
8450;SDS011;4262;50.980;13.892;2023-01-30T13:51:15;7.33;;;3.10;;
8450;SDS011;4262;50.980;13.892;2023-01-30T13:53:49;11.47;;;3.90;;
8450;SDS011;4262;50.980;13.892;2023-01-30T13:56:25;9.93;;;3.37;;
8450;SDS011;4262;50.980;13.892;2023-01-30T13:58:57;8.97;;;3.20;;
8450;SDS011;4262;50.980;13.892;2023-01-30T14:04:44;11.10;;;3.00;;
8450;SDS011;4262;50.980;13.892;2023-01-30T14:07:14;8.03;;;3.80;;
8450;SDS011;4262;50.980;13.892;2023-01-30T14:09:48;7.30;;;3.60;;
8450;SDS011;4262;50.980;13.892;2023-01-30T14:12:18;7.50;;;3.17;;
8450;SDS011;4262;50.980;13.892;2023-01-30T14:14:58;11.80;;;3.23;;
8450;SDS011;4262;50.980;13.892;2023-01-30T14:17:27;10.80;;;3.30;;
8450;SDS011;4262;50.980;13.892;2023-01-30T14:20:10;9.43;;;3.20;;
8450;SDS011;4262;50.980;13.892;2023-01-30T14:22:47;11.57;;;2.93;;
8450;SDS011;4262;50.980;13.892;2023-01-30T14:25:33;6.07;;;3.23;;
8450;SDS011;4262;50.980;13.892;2023-01-30T14:37:52;7.43;;;3.57;;
8450;SDS011;4262;50.980;13.892;2023-01-30T14:43:46;16.43;;;4.73;;
8450;SDS011;4262;50.980;13.892;2023-01-30T14:49:17;9.57;;;3.87;;
8450;SDS011;4262;50.980;13.892;2023-01-30T14:51:50;10.33;;;4.47;;
8450;SDS011;4262;50.980;13.892;2023-01-30T14:54:22;8.47;;;3.03;;
8450;SDS011;4262;50.980;13.892;2023-01-30T14:56:55;12.33;;;5.00;;
8450;SDS011;4262;50.980;13.892;2023-01-30T14:59:25;8.60;;;3.83;;
8450;SDS011;4262;50.980;13.892;2023-01-30T15:02:02;9.57;;;3.97;;
8450;SDS011;4262;50.980;13.892;2023-01-30T15:04:39;9.13;;;3.47;;
8450;SDS011;4262;50.980;13.892;2023-01-30T15:07:10;13.77;;;5.10;;
8450;SDS011;4262;50.980;13.892;2023-01-30T15:09:40;14.90;;;4.97;;
8450;SDS011;4262;50.980;13.892;2023-01-30T15:12:19;9.90;;;3.47;;
8450;SDS011;4262;50.980;13.892;2023-01-30T15:15:20;12.27;;;4.60;;
8450;SDS011;4262;50.980;13.892;2023-01-30T15:17:58;8.67;;;3.80;;
8450;SDS011;4262;50.980;13.892;2023-01-30T15:20:38;11.07;;;4.40;;
8450;SDS011;4262;50.980;13.892;2023-01-30T15:23:33;11.67;;;4.23;;
8450;SDS011;4262;50.980;13.892;2023-01-30T15:26:22;10.40;;;3.83;;
8450;SDS011;4262;50.980;13.892;2023-01-30T15:29:16;11.00;;;3.83;;
8450;SDS011;4262;50.980;13.892;2023-01-30T15:31:57;10.30;;;4.10;;
8450;SDS011;4262;50.980;13.892;2023-01-30T15:34:26;9.90;;;4.30;;
8450;SDS011;4262;50.980;13.892;2023-01-30T15:36:54;11.90;;;3.60;;
8450;SDS011;4262;50.980;13.892;2023-01-30T15:39:22;9.40;;;3.87;;
8450;SDS011;4262;50.980;13.892;2023-01-30T15:41:50;9.97;;;4.00;;
8450;SDS011;4262;50.980;13.892;2023-01-30T15:47:32;8.10;;;4.17;;
8450;SDS011;4262;50.980;13.892;2023-01-30T15:50:11;11.50;;;4.07;;
8450;SDS011;4262;50.980;13.892;2023-01-30T15:52:39;9.87;;;4.83;;
8450;SDS011;4262;50.980;13.892;2023-01-30T15:55:15;12.27;;;4.40;;
8450;SDS011;4262;50.980;13.892;2023-01-30T15:57:47;11.73;;;4.00;;
8450;SDS011;4262;50.980;13.892;2023-01-30T16:00:20;7.57;;;3.57;;
8450;SDS011;4262;50.980;13.892;2023-01-30T16:02:52;8.60;;;4.37;;
8450;SDS011;4262;50.980;13.892;2023-01-30T16:05:21;6.73;;;3.33;;
8450;SDS011;4262;50.980;13.892;2023-01-30T16:07:50;7.10;;;3.97;;
8450;SDS011;4262;50.980;13.892;2023-01-30T16:10:18;9.53;;;4.20;;
8450;SDS011;4262;50.980;13.892;2023-01-30T16:12:49;8.90;;;3.87;;
8450;SDS011;4262;50.980;13.892;2023-01-30T16:15:23;12.57;;;4.17;;
8450;SDS011;4262;50.980;13.892;2023-01-30T16:17:55;7.80;;;4.10;;
8450;SDS011;4262;50.980;13.892;2023-01-30T16:20:26;11.80;;;4.27;;
8450;SDS011;4262;50.980;13.892;2023-01-30T16:22:54;8.33;;;4.10;;
8450;SDS011;4262;50.980;13.892;2023-01-30T16:25:21;9.70;;;4.77;;
8450;SDS011;4262;50.980;13.892;2023-01-30T16:27:52;8.43;;;4.00;;
8450;SDS011;4262;50.980;13.892;2023-01-30T16:30:19;11.87;;;4.87;;
8450;SDS011;4262;50.980;13.892;2023-01-30T16:32:51;8.27;;;4.13;;
8450;SDS011;4262;50.980;13.892;2023-01-30T16:35:26;17.30;;;5.13;;
8450;SDS011;4262;50.980;13.892;2023-01-30T16:37:57;13.23;;;4.67;;
8450;SDS011;4262;50.980;13.892;2023-01-30T16:40:26;13.27;;;4.37;;
8450;SDS011;4262;50.980;13.892;2023-01-30T16:42:57;9.60;;;4.20;;
8450;SDS011;4262;50.980;13.892;2023-01-30T16:48:02;10.83;;;4.70;;
8450;SDS011;4262;50.980;13.892;2023-01-30T16:50:59;13.17;;;5.10;;
8450;SDS011;4262;50.980;13.892;2023-01-30T16:53:37;14.27;;;4.90;;
8450;SDS011;4262;50.980;13.892;2023-01-30T16:56:14;16.70;;;4.93;;
8450;SDS011;4262;50.980;13.892;2023-01-30T16:58:47;7.83;;;3.50;;
8450;SDS011;4262;50.980;13.892;2023-01-30T17:01:15;13.80;;;4.40;;
8450;SDS011;4262;50.980;13.892;2023-01-30T17:03:47;12.43;;;5.27;;
8450;SDS011;4262;50.980;13.892;2023-01-30T17:06:19;12.10;;;5.40;;
8450;SDS011;4262;50.980;13.892;2023-01-30T17:08:48;11.93;;;5.50;;
8450;SDS011;4262;50.980;13.892;2023-01-30T17:11:28;15.50;;;5.17;;
8450;SDS011;4262;50.980;13.892;2023-01-30T17:14:09;14.37;;;4.90;;
8450;SDS011;4262;50.980;13.892;2023-01-30T17:16:46;11.27;;;4.00;;
8450;SDS011;4262;50.980;13.892;2023-01-30T17:19:25;13.53;;;4.60;;
8450;SDS011;4262;50.980;13.892;2023-01-30T17:21:53;8.30;;;3.87;;
8450;SDS011;4262;50.980;13.892;2023-01-30T17:24:21;11.10;;;4.43;;
8450;SDS011;4262;50.980;13.892;2023-01-30T17:26:51;19.27;;;5.00;;
8450;SDS011;4262;50.980;13.892;2023-01-30T17:29:25;17.30;;;4.83;;
8450;SDS011;4262;50.980;13.892;2023-01-30T17:31:54;16.37;;;5.33;;
8450;SDS011;4262;50.980;13.892;2023-01-30T17:34:21;16.93;;;5.77;;
8450;SDS011;4262;50.980;13.892;2023-01-30T17:36:48;13.50;;;5.63;;
8450;SDS011;4262;50.980;13.892;2023-01-30T17:39:17;18.53;;;4.80;;
8450;SDS011;4262;50.980;13.892;2023-01-30T17:41:45;14.13;;;5.40;;
8450;SDS011;4262;50.980;13.892;2023-01-30T17:44:13;12.20;;;5.13;;
8450;SDS011;4262;50.980;13.892;2023-01-30T17:46:42;18.67;;;5.20;;
8450;SDS011;4262;50.980;13.892;2023-01-30T17:49:12;10.70;;;3.83;;
8450;SDS011;4262;50.980;13.892;2023-01-30T17:51:41;14.10;;;4.10;;
8450;SDS011;4262;50.980;13.892;2023-01-30T17:54:08;16.23;;;4.30;;
8450;SDS011;4262;50.980;13.892;2023-01-30T17:56:35;11.60;;;4.30;;
8450;SDS011;4262;50.980;13.892;2023-01-30T17:59:03;15.43;;;4.50;;
8450;SDS011;4262;50.980;13.892;2023-01-30T18:01:32;11.60;;;4.50;;
8450;SDS011;4262;50.980;13.892;2023-01-30T18:04:00;23.70;;;4.57;;
8450;SDS011;4262;50.980;13.892;2023-01-30T18:06:28;14.70;;;4.93;;
8450;SDS011;4262;50.980;13.892;2023-01-30T18:08:56;11.47;;;4.43;;
8450;SDS011;4262;50.980;13.892;2023-01-30T18:11:23;12.40;;;4.73;;
8450;SDS011;4262;50.980;13.892;2023-01-30T18:13:50;14.37;;;5.40;;
8450;SDS011;4262;50.980;13.892;2023-01-30T18:16:18;8.67;;;4.10;;
8450;SDS011;4262;50.980;13.892;2023-01-30T18:18:49;19.63;;;5.13;;
8450;SDS011;4262;50.980;13.892;2023-01-30T18:21:18;16.30;;;6.53;;
8450;SDS011;4262;50.980;13.892;2023-01-30T18:23:46;15.33;;;4.57;;
8450;SDS011;4262;50.980;13.892;2023-01-30T18:26:13;24.23;;;6.17;;
8450;SDS011;4262;50.980;13.892;2023-01-30T18:28:40;13.57;;;4.43;;
8450;SDS011;4262;50.980;13.892;2023-01-30T18:31:08;18.67;;;6.43;;
8450;SDS011;4262;50.980;13.892;2023-01-30T18:33:35;10.60;;;4.70;;
8450;SDS011;4262;50.980;13.892;2023-01-30T18:36:03;16.20;;;5.57;;
8450;SDS011;4262;50.980;13.892;2023-01-30T18:38:31;12.27;;;3.97;;
8450;SDS011;4262;50.980;13.892;2023-01-30T18:40:58;10.63;;;3.90;;
8450;SDS011;4262;50.980;13.892;2023-01-30T18:43:31;11.57;;;5.30;;
8450;SDS011;4262;50.980;13.892;2023-01-30T18:46:01;13.20;;;4.43;;
8450;SDS011;4262;50.980;13.892;2023-01-30T18:48:30;16.33;;;4.97;;
8450;SDS011;4262;50.980;13.892;2023-01-30T18:51:05;21.13;;;5.63;;
8450;SDS011;4262;50.980;13.892;2023-01-30T18:53:34;17.40;;;6.00;;
8450;SDS011;4262;50.980;13.892;2023-01-30T18:56:00;10.90;;;3.93;;
8450;SDS011;4262;50.980;13.892;2023-01-30T18:58:28;19.77;;;5.30;;
8450;SDS011;4262;50.980;13.892;2023-01-30T19:00:55;13.83;;;4.70;;
8450;SDS011;4262;50.980;13.892;2023-01-30T19:03:22;15.77;;;5.93;;
8450;SDS011;4262;50.980;13.892;2023-01-30T19:05:49;12.30;;;4.80;;
8450;SDS011;4262;50.980;13.892;2023-01-30T19:08:16;15.43;;;5.23;;
8450;SDS011;4262;50.980;13.892;2023-01-30T19:10:44;10.57;;;4.70;;
8450;SDS011;4262;50.980;13.892;2023-01-30T19:13:11;17.83;;;4.73;;
8450;SDS011;4262;50.980;13.892;2023-01-30T19:15:57;12.80;;;4.13;;
8450;SDS011;4262;50.980;13.892;2023-01-30T19:18:24;21.23;;;8.57;;
8450;SDS011;4262;50.980;13.892;2023-01-30T19:20:52;29.13;;;11.47;;
8450;SDS011;4262;50.980;13.892;2023-01-30T19:23:19;24.57;;;6.20;;
8450;SDS011;4262;50.980;13.892;2023-01-30T19:25:53;16.60;;;6.60;;
8450;SDS011;4262;50.980;13.892;2023-01-30T19:28:20;15.60;;;7.13;;
8450;SDS011;4262;50.980;13.892;2023-01-30T19:30:47;12.70;;;4.80;;
8450;SDS011;4262;50.980;13.892;2023-01-30T19:33:14;16.43;;;4.97;;
8450;SDS011;4262;50.980;13.892;2023-01-30T19:35:43;16.73;;;4.20;;
8450;SDS011;4262;50.980;13.892;2023-01-30T19:38:09;10.20;;;3.80;;
8450;SDS011;4262;50.980;13.892;2023-01-30T19:40:38;12.00;;;4.47;;
8450;SDS011;4262;50.980;13.892;2023-01-30T19:43:07;15.20;;;4.50;;
8450;SDS011;4262;50.980;13.892;2023-01-30T19:45:35;11.10;;;3.87;;
8450;SDS011;4262;50.980;13.892;2023-01-30T19:48:04;23.33;;;4.20;;
8450;SDS011;4262;50.980;13.892;2023-01-30T19:50:31;17.53;;;4.37;;
8450;SDS011;4262;50.980;13.892;2023-01-30T19:52:58;19.73;;;6.07;;
8450;SDS011;4262;50.980;13.892;2023-01-30T19:55:24;14.13;;;5.10;;
8450;SDS011;4262;50.980;13.892;2023-01-30T19:57:51;18.50;;;5.30;;
8450;SDS011;4262;50.980;13.892;2023-01-30T20:00:20;14.37;;;5.50;;
8450;SDS011;4262;50.980;13.892;2023-01-30T20:02:47;13.73;;;4.33;;
8450;SDS011;4262;50.980;13.892;2023-01-30T20:05:14;16.23;;;5.90;;
8450;SDS011;4262;50.980;13.892;2023-01-30T20:07:42;17.80;;;5.17;;
8450;SDS011;4262;50.980;13.892;2023-01-30T20:10:10;20.03;;;5.07;;
8450;SDS011;4262;50.980;13.892;2023-01-30T20:12:38;16.17;;;4.23;;
8450;SDS011;4262;50.980;13.892;2023-01-30T20:15:05;15.80;;;5.27;;